Chickasaw, Ohio
Current Conditions -  °F | °C
As of 11:53 AM on Friday 28 Nov 2014 (Local Time) from KAXV Reporting Station
Broken Clouds Broken Clouds  
Wind Chill: 19°   Ceiling: 4600
Heat Index: 28°   Visibility: 10mi
Dew Point: 19°   Wind: 10mph
Humidity: 69%   Direction: 180°S
Pressure: 30.3"   Gusts: NA
Location:  40.44°N, 84.49°W
Report Text: KAXV 281653Z AUTO 18009KT 10SM SCT040 BKN046 BKN055 M02/M07 A3030 RMK AO2
Loading
Personal Weather Stations






























Interactive Weather Map New forecast layout! Learn more

10-Day Weather Forecast

Advertisements
Track Severe Weather on mobile